Time;durP1;ratioP1;P1;durP2;ratioP2;P2;SDS_P1;SDS_P2;PMS_P1;PMS_P2;Temp;Humidity;BMP_temperature;BMP_pressure;BME280_temperature;BME280_humidity;BME280_pressure;Samples;Min_cycle;Max_cycle;Signal;HPM_P1;HPM_P2
2023/08/12 00:02:10;;;;;;;;;;;;;;;19.43;42.85;101072.84;4951597;27;98323;-78
2023/08/12 00:04:37;;;;;;;;;;;;;;;19.43;42.62;101066.56;4968001;27;98599;-77
2023/08/12 00:07:05;;;;;;;;;;;;;;;19.40;42.82;101067.19;4971573;27;98499;-69
2023/08/12 00:09:32;;;;;;;;;;;;;;;19.38;42.69;101065.59;4955190;27;97979;-77
2023/08/12 00:12:00;;;;;;;;;;;;;;;19.36;42.71;101059.59;4973954;27;98774;-69
2023/08/12 00:14:26;;;;;;;;;;;;;;;19.35;42.76;101071.66;4955417;27;98526;-78
2023/08/12 00:16:56;;;;;;;;;;;;;;;19.32;42.93;101075.00;4951891;27;98202;-69
2023/08/12 00:19:23;;;;;;;;;;;;;;;19.31;43.02;101072.59;4955484;27;98252;-77
2023/08/12 00:21:52;;;;;;;;;;;;;;;19.29;42.90;101072.91;4954456;27;98540;-69
2023/08/12 00:24:19;;;;;;;;;;;;;;;19.27;43.01;101077.09;4970232;27;100455;-77
2023/08/12 00:26:46;;;;;;;;;;;;;;;19.24;42.78;101073.03;4952892;27;98451;-78
2023/08/12 00:29:13;;;;;;;;;;;;;;;19.22;42.77;101069.81;4952900;27;99435;-78
2023/08/12 00:31:40;;;;;;;;;;;;;;;19.19;42.92;101072.38;4951992;27;98390;-69
2023/08/12 00:34:08;;;;;;;;;;;;;;;19.16;42.76;101064.78;4951244;27;99528;-78
2023/08/12 00:36:37;;;;;;;;;;;;;;;19.11;42.79;101063.00;4956503;27;98123;-77
2023/08/12 00:39:05;;;;;;;;;;;;;;;19.08;43.03;101069.06;4956001;27;98620;-78
2023/08/12 00:41:31;;;;;;;;;;;;;;;19.05;43.09;101059.56;4957232;27;98465;-70
2023/08/12 00:43:58;;;;;;;;;;;;;;;19.02;43.02;101062.94;4956267;27;99133;-78
2023/08/12 00:46:26;;;;;;;;;;;;;;;18.99;42.85;101057.28;4951139;27;98143;-69
2023/08/12 00:48:53;;;;;;;;;;;;;;;18.95;43.00;101046.16;4954252;27;98724;-69
2023/08/12 00:51:22;;;;;;;;;;;;;;;18.93;42.87;101053.03;4965504;27;98184;-78
2023/08/12 00:53:51;;;;;;;;;;;;;;;18.89;43.03;101053.63;4988317;27;98328;-69
2023/08/12 00:56:20;;;;;;;;;;;;;;;18.86;43.14;101048.81;4951364;27;97822;-77
2023/08/12 00:58:47;;;;;;;;;;;;;;;18.84;43.08;101045.56;4955735;27;97973;-78
2023/08/12 01:01:17;;;;;;;;;;;;;;;18.83;43.08;101045.91;4952041;27;98327;-70
2023/08/12 01:03:44;;;;;;;;;;;;;;;18.81;42.96;101045.38;4966453;27;98514;-78
2023/08/12 01:06:11;;;;;;;;;;;;;;;18.78;42.98;101046.81;4956281;27;99756;-78
2023/08/12 01:08:39;;;;;;;;;;;;;;;18.77;43.18;101041.66;4990920;27;98060;-77
2023/08/12 01:11:20;;;;;;;;;;;;;;;18.75;43.06;101046.63;4959003;27;98533;-78
2023/08/12 01:13:53;;;;;;;;;;;;;;;18.72;43.02;101034.41;4965473;27;99434;-78
2023/08/12 01:16:20;;;;;;;;;;;;;;;18.69;42.97;101037.69;4966372;27;98272;-70
2023/08/12 01:18:47;;;;;;;;;;;;;;;18.67;43.10;101039.13;4955853;27;99500;-78
2023/08/12 01:21:16;;;;;;;;;;;;;;;18.62;43.25;101032.66;4956041;27;98455;-70
2023/08/12 01:23:43;;;;;;;;;;;;;;;18.60;43.21;101031.38;4953823;27;98422;-70
2023/08/12 01:26:09;;;;;;;;;;;;;;;18.59;43.16;101037.94;4953155;27;98189;-70
2023/08/12 01:28:38;;;;;;;;;;;;;;;18.53;43.13;101029.06;4967453;27;98596;-70
2023/08/12 01:31:24;;;;;;;;;;;;;;;18.53;43.32;101025.53;4951018;27;98107;-70
2023/08/12 01:33:56;;;;;;;;;;;;;;;18.52;43.31;101032.09;4949757;27;98180;-70
2023/08/12 01:36:23;;;;;;;;;;;;;;;18.50;43.03;101032.38;4955824;27;98850;-69
2023/08/12 01:38:52;;;;;;;;;;;;;;;18.49;43.09;101025.31;4954375;27;98142;-77
2023/08/12 01:41:22;;;;;;;;;;;;;;;18.48;43.06;101025.63;4953617;27;98248;-77
2023/08/12 01:43:50;;;;;;;;;;;;;;;18.46;43.14;101022.41;4950152;28;98519;-77
2023/08/12 01:46:19;;;;;;;;;;;;;;;18.43;43.15;101023.84;4950186;27;98263;-77
2023/08/12 01:48:46;;;;;;;;;;;;;;;18.41;43.29;101023.31;4954254;27;98550;-77
2023/08/12 01:51:13;;;;;;;;;;;;;;;18.40;43.29;101027.97;4967590;27;98561;-70
2023/08/12 01:53:41;;;;;;;;;;;;;;;18.39;43.17;101025.53;4950626;27;98135;-78
2023/08/12 01:56:08;;;;;;;;;;;;;;;18.39;43.24;101014.63;4950957;27;98397;-79
2023/08/12 01:58:37;;;;;;;;;;;;;;;18.38;43.07;101019.28;4951562;27;98167;-77
2023/08/12 02:01:05;;;;;;;;;;;;;;;18.36;43.24;101021.50;4952800;27;98082;-70
2023/08/12 02:03:31;;;;;;;;;;;;;;;18.35;43.16;101009.00;4949750;27;98203;-78
2023/08/12 02:05:59;;;;;;;;;;;;;;;18.34;43.35;101007.34;4951531;27;98715;-70
2023/08/12 02:08:26;;;;;;;;;;;;;;;18.31;43.17;101005.25;4958116;27;98294;-70
2023/08/12 02:10:55;;;;;;;;;;;;;;;18.28;43.25;100991.41;4954257;27;98267;-78
2023/08/12 02:13:25;;;;;;;;;;;;;;;18.24;43.21;100993.94;4949817;27;98243;-78
2023/08/12 02:15:54;;;;;;;;;;;;;;;18.21;43.56;100991.81;4948212;27;98556;-70
2023/08/12 02:18:21;;;;;;;;;;;;;;;18.18;43.39;100995.16;4949461;27;98083;-70
2023/08/12 02:20:48;;;;;;;;;;;;;;;18.17;43.38;100990.81;4952640;27;98296;-70
2023/08/12 02:23:16;;;;;;;;;;;;;;;18.15;43.20;100991.13;4954559;27;98354;-78
2023/08/12 02:25:45;;;;;;;;;;;;;;;18.14;43.40;100988.69;4957503;27;98950;-70
2023/08/12 02:28:11;;;;;;;;;;;;;;;18.13;43.40;100985.16;4952461;27;98300;-70
2023/08/12 02:30:38;;;;;;;;;;;;;;;18.11;43.38;100973.75;4954153;27;100190;-78
2023/08/12 02:33:05;;;;;;;;;;;;;;;18.10;43.46;100968.59;4969448;27;98086;-78
2023/08/12 02:35:34;;;;;;;;;;;;;;;18.09;43.32;100973.25;4951223;27;100114;-78
2023/08/12 02:38:01;;;;;;;;;;;;;;;18.08;43.45;100973.56;4952652;27;98186;-78
2023/08/12 02:40:28;;;;;;;;;;;;;;;18.06;43.42;100973.84;4951186;27;98714;-70
2023/08/12 02:42:55;;;;;;;;;;;;;;;18.04;43.38;100970.66;4954342;27;98324;-70
2023/08/12 02:45:22;;;;;;;;;;;;;;;18.03;43.33;100968.19;4949458;27;98124;-70
2023/08/12 02:47:49;;;;;;;;;;;;;;;18.02;43.49;100958.41;4968484;27;98077;-78
2023/08/12 02:50:16;;;;;;;;;;;;;;;18.00;43.47;100964.19;4955558;27;98773;-71
2023/08/12 02:52:43;;;;;;;;;;;;;;;17.98;43.35;100962.88;4968999;27;98270;-78
2023/08/12 02:55:12;;;;;;;;;;;;;;;17.97;43.47;100967.50;4954929;27;98406;-70
2023/08/12 02:57:42;;;;;;;;;;;;;;;17.97;43.34;100972.16;4953568;27;98425;-78
2023/08/12 03:00:10;;;;;;;;;;;;;;;17.95;43.59;100969.72;4965605;27;98011;-77
2023/08/12 03:02:37;;;;;;;;;;;;;;;17.96;43.40;100968.63;4979387;27;98556;-70
2023/08/12 03:05:06;;;;;;;;;;;;;;;17.95;43.53;100972.44;4952178;27;98083;-70
2023/08/12 03:07:33;;;;;;;;;;;;;;;17.94;43.55;100965.38;4968046;27;98470;-70
2023/08/12 03:10:18;;;;;;;;;;;;;;;17.92;43.35;100967.63;5022574;27;98594;-69
2023/08/12 03:12:44;;;;;;;;;;;;;;;17.90;43.43;100965.19;4985752;27;98192;-69
2023/08/12 03:15:11;;;;;;;;;;;;;;;17.86;43.50;100963.38;4996745;27;98230;-69
2023/08/12 03:17:39;;;;;;;;;;;;;;;17.83;43.37;100963.97;5000570;27;98395;-76
2023/08/12 03:20:08;;;;;;;;;;;;;;;17.79;43.50;100968.44;4981479;27;98231;-70
2023/08/12 03:22:37;;;;;;;;;;;;;;;17.75;43.53;100973.69;4999109;27;98414;-76
2023/08/12 03:25:04;;;;;;;;;;;;;;;17.72;43.36;100965.25;4979968;27;98434;-76
2023/08/12 03:27:31;;;;;;;;;;;;;;;17.66;43.49;100962.66;4986974;27;103215;-69
2023/08/12 03:29:58;;;;;;;;;;;;;;;17.63;43.58;100959.72;4985806;27;98059;-77
2023/08/12 03:32:27;;;;;;;;;;;;;;;17.59;43.46;100961.44;4987306;27;98427;-76
2023/08/12 03:34:56;;;;;;;;;;;;;;;17.56;43.56;100967.47;4976524;27;98506;-77
2023/08/12 03:37:23;;;;;;;;;;;;;;;17.53;43.42;100954.47;4986668;27;98115;-69
2023/08/12 03:39:50;;;;;;;;;;;;;;;17.51;43.56;100962.94;4980969;27;99656;-77
2023/08/12 03:42:21;;;;;;;;;;;;;;;17.50;43.44;100957.81;5004871;27;99852;-76
2023/08/12 03:44:53;;;;;;;;;;;;;;;17.48;43.51;100955.34;4983615;27;98305;-77
2023/08/12 03:47:23;;;;;;;;;;;;;;;17.46;43.56;100945.88;4984303;27;98008;-69
2023/08/12 03:49:51;;;;;;;;;;;;;;;17.46;43.45;100945.88;4982719;27;98583;-76
2023/08/12 03:52:18;;;;;;;;;;;;;;;17.45;43.54;100950.53;4999086;27;98055;-70
2023/08/12 03:54:47;;;;;;;;;;;;;;;17.45;43.55;100947.81;4978480;27;100349;-77
2023/08/12 03:57:13;;;;;;;;;;;;;;;17.46;43.52;100943.16;5001522;27;98914;-70
2023/08/12 03:59:41;;;;;;;;;;;;;;;17.46;43.44;100952.16;4990984;27;98321;-77
2023/08/12 04:02:12;;;;;;;;;;;;;;;17.46;43.58;100940.44;4998805;27;98197;-77
2023/08/12 04:04:39;;;;;;;;;;;;;;;17.47;43.48;100942.06;4981824;27;100709;-77
2023/08/12 04:07:06;;;;;;;;;;;;;;;17.46;43.41;100937.72;4983465;27;98192;-77
2023/08/12 04:09:33;;;;;;;;;;;;;;;17.47;43.54;100937.41;4981415;27;98113;-76
2023/08/12 04:11:59;;;;;;;;;;;;;;;17.47;43.41;100939.31;4996367;27;98257;-70
2023/08/12 04:14:26;;;;;;;;;;;;;;;17.47;43.44;100933.88;4983316;27;98347;-70
2023/08/12 04:16:55;;;;;;;;;;;;;;;17.49;43.46;100937.91;4984375;27;98554;-77
2023/08/12 04:19:22;;;;;;;;;;;;;;;17.50;43.38;100936.81;4982941;27;98203;-70
2023/08/12 04:21:49;;;;;;;;;;;;;;;17.50;43.49;100934.06;4969661;27;98506;-77
2023/08/12 04:24:15;;;;;;;;;;;;;;;17.52;43.37;100934.56;4969136;27;98314;-69
2023/08/12 04:26:45;;;;;;;;;;;;;;;17.55;43.49;100938.63;4984211;27;98223;-77
2023/08/12 04:29:13;;;;;;;;;;;;;;;17.59;43.40;100942.34;4968624;27;99632;-70
2023/08/12 04:31:41;;;;;;;;;;;;;;;17.62;43.51;100939.84;4965465;27;98857;-70
2023/08/12 04:34:09;;;;;;;;;;;;;;;17.66;43.48;100938.13;4966669;27;98562;-70
2023/08/12 04:36:37;;;;;;;;;;;;;;;17.71;43.40;100941.84;5001967;27;98096;-77
2023/08/12 04:39:06;;;;;;;;;;;;;;;17.75;43.37;100932.78;4963835;27;99728;-78
2023/08/12 04:41:33;;;;;;;;;;;;;;;17.80;43.28;100929.13;4964689;27;98268;-70
2023/08/12 04:44:04;;;;;;;;;;;;;;;17.83;43.47;100932.06;4966645;27;98785;-77
2023/08/12 04:46:32;;;;;;;;;;;;;;;17.86;43.23;100925.22;4969815;27;98914;-77
2023/08/12 04:48:59;;;;;;;;;;;;;;;17.91;43.17;100933.28;4968745;27;98343;-70
2023/08/12 04:51:26;;;;;;;;;;;;;;;17.96;43.30;100927.72;4967381;27;98271;-70
2023/08/12 04:53:54;;;;;;;;;;;;;;;18.01;43.12;100926.81;4970503;27;98702;-77
2023/08/12 04:56:28;;;;;;;;;;;;;;;18.10;43.17;100927.69;4984819;27;98484;-77
2023/08/12 04:58:56;;;;;;;;;;;;;;;18.15;43.14;100928.38;4971356;27;99339;-70
2023/08/12 05:01:23;;;;;;;;;;;;;;;18.22;43.06;100927.16;4967756;27;98281;-70
2023/08/12 05:03:50;;;;;;;;;;;;;;;18.28;43.19;100920.47;4971963;27;98114;-77
2023/08/12 05:06:17;;;;;;;;;;;;;;;18.36;43.01;100930.66;4967359;27;98037;-77
2023/08/12 05:08:45;;;;;;;;;;;;;;;18.43;42.90;100927.47;4966478;27;98095;-77
2023/08/12 05:11:13;;;;;;;;;;;;;;;18.49;43.13;100918.06;4969356;27;98048;-77
2023/08/12 05:13:41;;;;;;;;;;;;;;;18.58;43.09;100922.47;4964700;27;98145;-77
2023/08/12 05:16:09;;;;;;;;;;;;;;;18.66;43.03;100918.19;4965591;27;98648;-77
2023/08/12 05:18:39;;;;;;;;;;;;;;;18.73;42.93;100918.59;4970474;27;97918;-77
2023/08/12 05:21:06;;;;;;;;;;;;;;;18.79;43.08;100914.63;4978610;27;98475;-77
2023/08/12 05:23:36;;;;;;;;;;;;;;;18.87;42.85;100915.81;4968832;27;98224;-77
2023/08/12 05:26:02;;;;;;;;;;;;;;;18.94;42.97;100909.88;4983986;27;101228;-77
2023/08/12 05:28:29;;;;;;;;;;;;;;;19.03;42.87;100910.75;4967221;27;98048;-70
2023/08/12 05:30:56;;;;;;;;;;;;;;;19.14;42.72;100917.56;4966434;27;98379;-70
2023/08/12 05:33:24;;;;;;;;;;;;;;;19.32;42.73;100916.50;4954940;27;98777;-77
2023/08/12 05:35:53;;;;;;;;;;;;;;;19.46;42.54;100910.94;4963121;27;98230;-77
2023/08/12 05:38:21;;;;;;;;;;;;;;;19.64;42.37;100908.28;4962891;27;98431;-70
2023/08/12 05:40:49;;;;;;;;;;;;;;;19.89;42.45;100910.28;4966915;27;98211;-78
2023/08/12 05:43:15;;;;;;;;;;;;;;;20.20;42.15;100906.59;4962043;27;98420;-70
2023/08/12 05:45:43;;;;;;;;;;;;;;;20.49;41.94;100906.00;4963093;27;98094;-78
2023/08/12 05:48:10;;;;;;;;;;;;;;;20.75;41.67;100901.28;4965689;27;103757;-77
2023/08/12 05:50:38;;;;;;;;;;;;;;;20.83;41.86;100907.88;4961416;27;98319;-77
2023/08/12 05:53:05;;;;;;;;;;;;;;;21.14;41.74;100898.59;4035515;28;10000392;-78
2023/08/12 05:55:35;;;;;;;;;;;;;;;21.29;41.42;100906.28;4883445;28;98255;-74
2023/08/12 05:58:04;;;;;;;;;;;;;;;21.41;41.62;100900.94;4914918;28;98836;-78
2023/08/12 06:00:31;;;;;;;;;;;;;;;21.73;41.52;100899.50;4899167;28;98648;-70
2023/08/12 06:02:58;;;;;;;;;;;;;;;22.00;41.41;100903.66;4907936;28;97860;-71
2023/08/12 06:05:26;;;;;;;;;;;;;;;22.27;41.30;100896.06;4914931;28;98118;-70
2023/08/12 06:07:53;;;;;;;;;;;;;;;22.51;41.26;100898.09;4901119;28;98335;-70
2023/08/12 06:10:19;;;;;;;;;;;;;;;22.81;40.91;100895.22;4915857;28;98485;-70
2023/08/12 06:12:46;;;;;;;;;;;;;;;23.15;40.89;100894.06;4901322;28;98330;-70
2023/08/12 06:15:15;;;;;;;;;;;;;;;23.48;40.64;100900.25;4913667;28;97863;-78
2023/08/12 06:17:41;;;;;;;;;;;;;;;23.78;40.67;100889.06;4899117;28;99269;-78
2023/08/12 06:20:09;;;;;;;;;;;;;;;23.98;40.84;100888.09;4904484;28;98871;-71
2023/08/12 06:22:38;;;;;;;;;;;;;;;24.08;40.54;100884.03;4913667;28;99316;-78
2023/08/12 06:25:07;;;;;;;;;;;;;;;24.01;41.14;100883.81;4899530;28;98849;-69
2023/08/12 06:27:38;;;;;;;;;;;;;;;24.08;41.07;100883.22;4899393;28;98482;-70
2023/08/12 06:30:06;;;;;;;;;;;;;;;24.13;40.85;100875.56;4896867;28;98708;-70
2023/08/12 06:32:35;;;;;;;;;;;;;;;24.24;40.90;100876.63;4898456;28;98136;-78
2023/08/12 06:35:01;;;;;;;;;;;;;;;24.30;41.20;100881.91;4900238;28;98257;-70
2023/08/12 06:37:28;;;;;;;;;;;;;;;24.39;41.27;100886.13;4902443;28;98485;-77
2023/08/12 06:39:55;;;;;;;;;;;;;;;24.53;41.01;100888.50;4899961;28;99385;-78
2023/08/12 06:42:22;;;;;;;;;;;;;;;24.71;40.89;100889.75;4898890;28;98395;-78
2023/08/12 06:44:58;;;;;;;;;;;;;;;24.96;40.76;100887.69;4896525;28;98458;-78
2023/08/12 06:47:27;;;;;;;;;;;;;;;25.28;40.58;100884.97;4897204;28;98554;-78
2023/08/12 06:49:54;;;;;;;;;;;;;;;25.48;40.49;100885.81;4897568;28;98436;-78
2023/08/12 06:52:21;;;;;;;;;;;;;;;25.84;40.32;100881.94;4895225;28;98571;-70
2023/08/12 06:54:48;;;;;;;;;;;;;;;26.01;40.36;100880.72;4894803;28;98088;-78
2023/08/12 06:57:15;;;;;;;;;;;;;;;26.22;40.31;100882.34;4894264;28;99066;-79
2023/08/12 06:59:42;;;;;;;;;;;;;;;26.41;40.17;100880.38;4897788;28;99984;-78
2023/08/12 07:02:10;;;;;;;;;;;;;;;26.59;40.26;100877.19;4897999;28;98145;-78
2023/08/12 07:04:36;;;;;;;;;;;;;;;26.68;40.28;100877.72;4891836;28;98162;-78
2023/08/12 07:07:04;;;;;;;;;;;;;;;26.80;40.33;100874.00;4898471;28;98433;-70
2023/08/12 07:09:31;;;;;;;;;;;;;;;27.02;40.12;100875.19;4910569;28;98993;-78
2023/08/12 07:11:58;;;;;;;;;;;;;;;27.51;39.90;100871.63;4901119;28;98993;-70
2023/08/12 07:14:25;;;;;;;;;;;;;;;28.13;39.06;100869.34;4891656;28;98579;-70
2023/08/12 07:16:52;;;;;;;;;;;;;;;28.64;38.86;100863.22;4898855;28;98277;-70
2023/08/12 07:19:18;;;;;;;;;;;;;;;29.59;38.39;100869.97;4889953;28;98758;-79
2023/08/12 07:21:45;;;;;;;;;;;;;;;30.41;37.65;100875.13;4909123;28;98529;-70
2023/08/12 07:24:12;;;;;;;;;;;;;;;31.32;36.95;100878.44;4893920;28;98079;-70
2023/08/12 07:26:38;;;;;;;;;;;;;;;32.04;36.95;100881.13;4896242;28;98070;-79
2023/08/12 07:29:05;;;;;;;;;;;;;;;32.75;36.28;100872.38;4892785;28;98172;-69
2023/08/12 07:31:33;;;;;;;;;;;;;;;33.45;36.24;100872.22;4892586;28;100326;-70
2023/08/12 07:33:59;;;;;;;;;;;;;;;33.46;36.46;100877.41;4894831;28;98341;-78
2023/08/12 07:36:26;;;;;;;;;;;;;;;34.14;36.22;100865.44;4878226;28;98363;-68
2023/08/12 07:38:53;;;;;;;;;;;;;;;34.69;36.07;100869.09;4876806;28;98303;-77
2023/08/12 07:41:20;;;;;;;;;;;;;;;35.23;35.75;100863.44;4892684;28;98224;-68
2023/08/12 07:43:46;;;;;;;;;;;;;;;35.67;35.67;100869.84;4884234;28;98625;-78
2023/08/12 07:46:13;;;;;;;;;;;;;;;35.84;35.75;100865.91;4885338;28;98100;-69
2023/08/12 07:48:41;;;;;;;;;;;;;;;35.77;36.11;100862.47;4898642;28;98344;-69
2023/08/12 07:51:08;;;;;;;;;;;;;;;36.06;35.85;100862.69;4900357;28;98192;-69
2023/08/12 07:53:36;;;;;;;;;;;;;;;36.29;35.81;100850.56;4897901;28;98384;-69
2023/08/12 07:56:03;;;;;;;;;;;;;;;34.97;37.50;100845.44;4894126;28;98873;-70
2023/08/12 07:58:31;;;;;;;;;;;;;;;35.52;36.80;100849.72;4899199;28;98465;-69
2023/08/12 08:00:58;;;;;;;;;;;;;;;36.61;36.02;100845.00;4897240;28;99215;-68
2023/08/12 08:03:27;;;;;;;;;;;;;;;37.32;35.23;100845.22;4904005;28;98771;-68
2023/08/12 08:05:54;;;;;;;;;;;;;;;38.16;35.27;100853.75;4901141;28;98816;-69
2023/08/12 08:08:20;;;;;;;;;;;;;;;38.96;34.71;100850.03;4911254;28;98194;-69
2023/08/12 08:10:47;;;;;;;;;;;;;;;39.68;34.22;100851.91;4901643;28;99825;-69
2023/08/12 08:13:16;;;;;;;;;;;;;;;40.41;33.97;100851.56;4897861;28;98664;-70
2023/08/12 08:15:42;;;;;;;;;;;;;;;41.04;33.77;100840.16;4916075;28;98278;-69
2023/08/12 08:18:11;;;;;;;;;;;;;;;41.41;33.55;100846.59;4895227;28;98082;-79
2023/08/12 08:20:39;;;;;;;;;;;;;;;41.67;33.52;100833.69;4900784;28;98362;-69
2023/08/12 08:23:05;;;;;;;;;;;;;;;41.62;33.89;100825.03;4883113;28;98190;-69
2023/08/12 08:25:37;;;;;;;;;;;;;;;41.42;34.30;100834.03;4897800;28;98532;-70
2023/08/12 08:28:04;;;;;;;;;;;;;;;40.99;35.12;100820.97;4895925;28;99047;-69
2023/08/12 08:30:31;;;;;;;;;;;;;;;39.88;35.98;100814.91;4902109;28;99968;-78
2023/08/12 08:32:58;;;;;;;;;;;;;;;41.69;34.09;100821.88;4903765;28;98120;-79
2023/08/12 08:35:25;;;;;;;;;;;;;;;42.74;33.31;100824.19;4900089;28;98996;-79
2023/08/12 08:37:52;;;;;;;;;;;;;;;42.11;34.40;100821.16;4896266;28;98267;-78
2023/08/12 08:40:19;;;;;;;;;;;;;;;43.66;33.19;100829.09;4914385;28;98453;-79
2023/08/12 08:42:46;;;;;;;;;;;;;;;44.55;32.59;100826.94;4916950;28;98384;-79
2023/08/12 08:45:14;;;;;;;;;;;;;;;42.87;34.41;100819.03;4888452;28;99923;-70
2023/08/12 08:47:42;;;;;;;;;;;;;;;42.72;34.65;100821.03;4895306;28;98042;-70
2023/08/12 08:50:09;;;;;;;;;;;;;;;43.16;33.73;100814.78;4897473;28;99034;-79
2023/08/12 08:52:37;;;;;;;;;;;;;;;44.01;33.34;100824.31;4899985;28;99331;-80
2023/08/12 08:55:04;;;;;;;;;;;;;;;45.15;32.47;100828.25;4927712;28;98449;-80
2023/08/12 08:57:32;;;;;;;;;;;;;;;45.25;32.48;100826.06;4903999;28;98913;-79
2023/08/12 08:59:59;;;;;;;;;;;;;;;45.98;31.66;100809.66;4900212;28;98382;-78
2023/08/12 09:02:27;;;;;;;;;;;;;;;46.73;31.71;100819.75;4915841;28;98092;-78
2023/08/12 09:04:53;;;;;;;;;;;;;;;47.28;31.66;100816.81;4899203;28;98456;-69
2023/08/12 09:07:20;;;;;;;;;;;;;;;47.47;31.56;100807.28;4880332;28;98238;-69
2023/08/12 09:09:48;;;;;;;;;;;;;;;48.16;31.21;100817.44;4902368;28;98241;-79
2023/08/12 09:12:15;;;;;;;;;;;;;;;48.57;31.02;100816.81;4882178;28;98393;-79
2023/08/12 09:14:41;;;;;;;;;;;;;;;48.92;30.75;100816.94;4896592;28;98203;-79
2023/08/12 09:17:08;;;;;;;;;;;;;;;48.84;31.06;100804.50;4901529;28;98150;-69
2023/08/12 09:19:35;;;;;;;;;;;;;;;49.06;30.89;100799.97;4879700;28;98161;-79
2023/08/12 09:22:05;;;;;;;;;;;;;;;49.57;30.71;100803.28;4895694;28;99029;-69
2023/08/12 09:24:31;;;;;;;;;;;;;;;48.84;31.27;100801.63;4900103;28;98164;-79
2023/08/12 09:26:58;;;;;;;;;;;;;;;48.22;31.99;100789.63;4894641;28;98410;-69
2023/08/12 09:29:34;;;;;;;;;;;;;;;47.98;32.07;100783.69;4898722;28;98071;-69
2023/08/12 09:32:13;;;;;;;;;;;;;;;47.62;32.85;100772.78;4913762;28;98462;-69
2023/08/12 09:34:53;;;;;;;;;;;;;;;45.51;34.78;100772.00;4887387;28;98137;-78
2023/08/12 09:37:22;;;;;;;;;;;;;;;44.12;35.48;100769.00;4901483;28;98463;-69
2023/08/12 09:39:51;;;;;;;;;;;;;;;43.12;36.33;100773.22;4911085;28;99566;-79
2023/08/12 09:42:19;;;;;;;;;;;;;;;42.55;36.31;100752.69;4902339;28;101015;-79
2023/08/12 09:44:45;;;;;;;;;;;;;;;41.44;36.80;100758.00;4907857;28;99325;-68
2023/08/12 09:47:11;;;;;;;;;;;;;;;40.92;36.99;100762.72;4896914;28;100402;-78
2023/08/12 09:49:39;;;;;;;;;;;;;;;41.33;36.31;100760.50;4896397;28;102245;-74
2023/08/12 09:52:06;;;;;;;;;;;;;;;43.65;33.74;100760.25;4899417;28;98000;-66
2023/08/12 09:54:32;;;;;;;;;;;;;;;43.40;34.14;100758.00;4894989;28;98469;-66
2023/08/12 09:57:00;;;;;;;;;;;;;;;42.74;34.97;100756.97;4911791;28;98309;-66
2023/08/12 09:59:36;;;;;;;;;;;;;;;42.70;35.27;100749.94;4892730;28;98097;-75
2023/08/12 10:02:09;;;;;;;;;;;;;;;41.95;35.52;100745.94;4881068;28;98865;-66
2023/08/12 10:04:40;;;;;;;;;;;;;;;41.45;36.22;100745.44;4895049;28;98826;-66
2023/08/12 10:07:07;;;;;;;;;;;;;;;41.50;35.88;100746.84;4892895;28;98305;-76
2023/08/12 10:09:35;;;;;;;;;;;;;;;42.03;35.43;100740.72;4882957;28;98220;-66
2023/08/12 10:12:02;;;;;;;;;;;;;;;42.10;35.15;100743.97;4897980;28;98294;-75
2023/08/12 10:14:29;;;;;;;;;;;;;;;41.43;35.79;100740.28;4893522;28;98009;-73
2023/08/12 10:16:55;;;;;;;;;;;;;;;40.68;36.30;100735.09;4880471;28;118095;-76
2023/08/12 10:19:21;;;;;;;;;;;;;;;40.24;36.56;100732.47;4896109;28;98194;-76
2023/08/12 10:21:49;;;;;;;;;;;;;;;39.79;36.70;100729.47;4912694;28;98594;-76
2023/08/12 10:24:16;;;;;;;;;;;;;;;39.28;37.21;100731.34;4893306;28;98521;-77
2023/08/12 10:26:42;;;;;;;;;;;;;;;38.97;37.11;100734.06;4897091;28;98723;-77
2023/08/12 10:29:08;;;;;;;;;;;;;;;38.63;37.31;100726.38;4902271;28;99588;-67
2023/08/12 10:31:34;;;;;;;;;;;;;;;38.26;37.33;100725.22;4896931;28;98200;-77
2023/08/12 10:34:01;;;;;;;;;;;;;;;37.87;37.90;100716.00;4895230;28;98234;-77
2023/08/12 10:36:28;;;;;;;;;;;;;;;37.59;37.88;100715.63;4913486;28;99818;-67
2023/08/12 10:38:56;;;;;;;;;;;;;;;37.44;37.63;100717.28;4907933;28;99114;-77
2023/08/12 10:41:24;;;;;;;;;;;;;;;37.27;37.85;100708.13;4895715;28;98310;-77
2023/08/12 10:44:01;;;;;;;;;;;;;;;37.15;37.74;100713.72;4896093;28;98215;-78
2023/08/12 10:46:35;;;;;;;;;;;;;;;37.12;37.64;100708.97;4881819;28;98475;-67
2023/08/12 10:49:05;;;;;;;;;;;;;;;37.62;37.37;100708.31;4897039;28;98328;-67
2023/08/12 10:52:00;;;;;;;;;;;;;;;37.42;37.12;100710.56;4901660;28;98860;-78
2023/08/12 10:54:30;;;;;;;;;;;;;;;37.13;37.41;100707.72;4907148;28;98614;-78
2023/08/12 10:57:08;;;;;;;;;;;;;;;36.88;37.85;100697.19;4893835;28;99540;-67
2023/08/12 10:59:49;;;;;;;;;;;;;;;36.55;37.81;100708.44;4909654;28;99622;-67
2023/08/12 11:02:19;;;;;;;;;;;;;;;36.19;38.22;100700.13;4910023;28;99461;-67
2023/08/12 11:04:57;;;;;;;;;;;;;;;35.85;38.23;100695.69;4908411;28;99257;-66
2023/08/12 11:07:29;;;;;;;;;;;;;;;35.66;38.42;100700.13;4913861;28;98513;-67
2023/08/12 11:09:58;;;;;;;;;;;;;;;35.52;38.35;100700.41;4883159;28;107272;-78
2023/08/12 11:12:31;;;;;;;;;;;;;;;35.40;38.33;100705.44;4899335;28;98561;-77
2023/08/12 11:14:59;;;;;;;;;;;;;;;35.27;38.47;100698.13;4896354;28;100473;-77
2023/08/12 11:17:39;;;;;;;;;;;;;;;35.11;38.18;100704.44;4896395;28;99811;-67
2023/08/12 11:20:07;;;;;;;;;;;;;;;34.94;38.59;100697.94;4897732;28;99980;-78
2023/08/12 11:22:39;;;;;;;;;;;;;;;34.74;38.74;100694.31;4894456;28;98352;-68
2023/08/12 11:25:12;;;;;;;;;;;;;;;34.54;38.52;100695.06;4896756;28;99770;-68
2023/08/12 11:27:43;;;;;;;;;;;;;;;34.31;38.55;100695.84;4902991;28;98802;-78
2023/08/12 11:30:12;;;;;;;;;;;;;;;34.11;38.51;100689.34;4900057;28;100376;-68
2023/08/12 11:32:39;;;;;;;;;;;;;;;33.89;38.67;100691.69;4898370;28;98785;-79
2023/08/12 11:35:06;;;;;;;;;;;;;;;33.66;38.75;100687.59;4889231;28;102005;-78
2023/08/12 11:37:35;;;;;;;;;;;;;;;33.44;38.85;100694.63;4887155;28;98191;-68
2023/08/12 11:40:02;;;;;;;;;;;;;;;33.24;38.65;100681.31;4899317;28;98206;-68
2023/08/12 11:42:29;;;;;;;;;;;;;;;33.06;39.18;100691.13;4918791;28;99556;-69
2023/08/12 11:44:55;;;;;;;;;;;;;;;32.87;38.91;100695.28;4913589;28;98737;-68
2023/08/12 11:47:21;;;;;;;;;;;;;;;32.70;39.19;100686.69;4902846;28;98678;-68
2023/08/12 11:49:48;;;;;;;;;;;;;;;32.59;39.29;100688.78;4882687;28;98007;-79
2023/08/12 11:52:14;;;;;;;;;;;;;;;32.53;38.80;100686.84;4898305;28;98237;-78
2023/08/12 11:54:41;;;;;;;;;;;;;;;32.51;38.93;100684.47;4898457;28;98090;-79
2023/08/12 11:57:07;;;;;;;;;;;;;;;32.47;39.17;100683.72;4928399;28;98394;-78
2023/08/12 11:59:33;;;;;;;;;;;;;;;32.39;38.88;100683.00;4898751;28;97990;-68
2023/08/12 12:02:02;;;;;;;;;;;;;;;32.29;39.02;100683.81;4902812;28;99589;-68
2023/08/12 12:04:32;;;;;;;;;;;;;;;32.19;39.01;100685.50;4900756;28;98013;-78
2023/08/12 12:06:59;;;;;;;;;;;;;;;32.08;39.13;100681.22;4904320;28;98297;-79
2023/08/12 12:09:26;;;;;;;;;;;;;;;32.00;39.16;100681.25;4915134;28;100370;-79
2023/08/12 12:11:56;;;;;;;;;;;;;;;31.95;38.88;100681.69;4913232;28;97966;-68
2023/08/12 12:14:24;;;;;;;;;;;;;;;31.89;38.92;100688.91;4895172;28;100195;-68
2023/08/12 12:16:51;;;;;;;;;;;;;;;31.87;39.07;100680.13;4917651;28;98137;-79
2023/08/12 12:19:22;;;;;;;;;;;;;;;31.86;39.02;100683.34;4936573;28;98385;-68
2023/08/12 12:21:53;;;;;;;;;;;;;;;31.89;38.73;100677.75;4899411;28;98768;-79
2023/08/12 12:24:20;;;;;;;;;;;;;;;31.94;38.81;100673.72;4898729;28;98416;-68
2023/08/12 12:26:49;;;;;;;;;;;;;;;32.05;38.81;100676.44;4897677;28;98434;-79
2023/08/12 12:29:15;;;;;;;;;;;;;;;32.13;38.33;100675.19;4901823;28;99220;-69
2023/08/12 12:31:41;;;;;;;;;;;;;;;32.15;38.40;100679.16;4900414;28;98519;-79
2023/08/12 12:34:09;;;;;;;;;;;;;;;32.11;38.58;100669.22;4896474;28;98224;-79
2023/08/12 12:36:37;;;;;;;;;;;;;;;32.02;38.85;100675.25;4901913;28;100228;-68
2023/08/12 12:39:04;;;;;;;;;;;;;;;31.91;38.49;100669.78;4895476;28;98311;-69
2023/08/12 12:41:31;;;;;;;;;;;;;;;31.86;38.66;100683.34;4902367;28;99047;-79